AirNav   Pilot Hours Calculator
 
 897 users online  

70AZ Regional Public Safety Training Academy Heliport
Tucson, Arizona, USA

GOING TO TUCSON?


FAA INFORMATION EFFECTIVE 08 SEPTEMBER 2022

Location

FAA Identifier: 70AZ
Lat/Long: 32-04-03.0000N 110-51-07.0000W
32-04.050000N 110-51.116667W
32.0675000,-110.8519444
(estimated)
Elevation: 2580 ft. / 786 m (estimated)
Variation: 12E (2000)
From city: 6 miles NW of TUCSON, AZ
Time zone: UTC -7 (year round; does not observe DST)
Zip code: 85706

Heliport Operations

Heliport use: Private use. Permission required prior to landing
Activation date: 11/2002
Control tower: no
ARTCC: ALBUQUERQUE CENTER
FSS: PRESCOTT FLIGHT SERVICE STATION
Attendance: IREG
Wind indicator: yes
Segmented circle: no

Heliport Communications

WX ASOS at TUS (5 nm NW): PHONE 520-295-5727
WX AWOS-3 at RYN (17 nm W): 133.35 (520-578-0269)

Nearby radio navigation aids

VOR radial/distance  VOR name  Freq  Var
TUSr105/3.6TUCSON VORTAC116.0012E
FHUr306/38.3LIBBY VOR/DME113.6013E
OLSr348/39.2NOGALES VOR/DME114.6512E

 
NDB name  Hdg/Dist  Freq  Var  ID
RYAN093/16.333812ERYN .-. -.-- -.
ROBLES079/25.822012ERBJ .-. -... .---
MARANA126/27.724512EAVQ .- ...- --.-

Heliport Services

Runway Information

Helipad H1

Dimensions: 20 x 20 ft. / 6 x 6 m
Surface: concrete
Traffic pattern: leftleft

Helipad H2

Dimensions: 20 x 20 ft. / 6 x 6 m
Surface: concrete
Traffic pattern: leftleft

Heliport Ownership and Management from official FAA records

Ownership: Privately-owned
Owner: US FOREST SERVICE
10001 S. WILMOT ROAD
TUCSON, AZ 85706
Manager: LUKE ABELL
10001 S. WILMOT ROAD
TUCSON, AZ 85706
Phone 520-664-0600

Additional Remarks

FOR CD CTC TUCSON APCH AT 520-829-6121.

Instrument Procedures

There are no published instrument procedures at 70AZ.

Some nearby airports with instrument procedures:

KTUS - Tucson International Airport (5 nm NW)
KDMA - Davis Monthan Air Force Base (6 nm N)
KRYN - Ryan Field Airport (17 nm W)
KAVQ - Marana Regional Airport (28 nm NW)
KFHU - Sierra Vista Municipal Airport-Libby Army Airfield (39 nm SE)
 
Loc | Ops | Rwys | IFR | FBO | Links
Com | Nav | Svcs | Stats | Notes
Area around 70AZ (Regional Public Safety Training Academy Heliport)
 
Road maps at: MapQuest Bing Google
 
Aerial photo
WARNING: Photo may not be current or correct
Aerial photo of 70AZ (Regional Public Safety Training Academy Heliport)
Do you have a better or more recent aerial photo of Regional Public Safety Training Academy Heliport that you would like to share? If so, please send us your photo.

 
Sectional chart

 
Airport distance calculator
Flying to Regional Public Safety Training Academy Heliport? Find the distance to fly.

From to 70AZ

Sunrise and sunset
Times for 02-Oct-2022
 Local
(UTC-7)
 Zulu
(UTC)
Morning civil twilight05:5512:55
Sunrise06:1913:19
Sunset18:0601:06
Evening civil twilight18:3101:31

Current date and time
Zulu (UTC)  02-Oct-2022 23:47:55
Local (UTC-7)  02-Oct-2022 16:47:55
 
METAR
KDMA 
6nm N 
022256Z AUTO 00000KT 10SM SCT110 31/09 A2991 RMK AO2 SLP130 T03100092 $
KTUS 
6nm NW 
022253Z 27005KT 10SM BKN110 32/11 A2993 RMK AO2 SLP091 T03220106
KRYN 
17nm W 
022245Z 00000KT 10SM CLR 32/09 A2990
TAF
KDMA 
6nm N 
022205Z 0222/0404 16009KT 9999 SCT090 QNH2990INS BECMG 0307/0308 16009KT 9999 SKC QNH2997INS TX32/0222Z TN18/0313Z
KTUS 
6nm NW 
021720Z 0218/0318 17007KT P6SM FEW110 FM022200 21008KT P6SM SCT100 FM030300 15008KT P6SM SCT100
NOTAMs
Click for the latest NOTAMs
NOTAMs are issued by the DoD/FAA and will open in a separate window not controlled by AirNav.

 

 
 

Would you like to see your business listed on this page?

 If your business provides an interesting product or service to pilots, flight crews, aircraft, or users of the Regional Public Safety Training Academy Heliport, you should consider listing it here.  To start the listing process, click on the button below
 
Add a business
 

Other Pages about Regional Public Safety Training Academy Heliport

Update a link
 
Copyright © AirNav, LLC. All rights reserved. Privacy Policy  Contact